createdAt,value
2022-10-30T00:01:04.664Z,101807.56
2022-10-30T00:03:31.392Z,101810.06
2022-10-30T00:05:58.056Z,101806.38
2022-10-30T00:08:25.800Z,101812.63
2022-10-30T00:10:52.573Z,101813.13
2022-10-30T00:13:20.020Z,101805.81
2022-10-30T00:15:48.537Z,101813.53
2022-10-30T00:18:15.336Z,101812.91
2022-10-30T00:20:41.780Z,101814.66
2022-10-30T00:23:08.192Z,101816.81
2022-10-30T00:25:36.192Z,101818.44
2022-10-30T00:28:05.975Z,101818.63
2022-10-30T00:30:33.917Z,101813.91
2022-10-30T00:33:00.767Z,101811.97
2022-10-30T00:35:27.614Z,101808.91
2022-10-30T00:37:54.111Z,101811.84
2022-10-30T00:40:20.885Z,101809.88
2022-10-30T00:42:47.305Z,101804.84
2022-10-30T00:45:16.002Z,101814.28
2022-10-30T00:47:52.453Z,101805.16
2022-10-30T00:50:18.859Z,101805.28
2022-10-30T00:52:54.565Z,101802.50
2022-10-30T00:55:26.738Z,101800.88
2022-10-30T00:57:53.406Z,101808.69
2022-10-30T01:00:22.296Z,101801.22
2022-10-30T01:02:50.442Z,101811.81
2022-10-30T01:05:19.856Z,101808.75
2022-10-30T01:07:46.259Z,101810.56
2022-10-30T01:10:13.820Z,101806.31
2022-10-30T01:12:43.772Z,101812.97
2022-10-30T01:15:12.225Z,101818.81
2022-10-30T01:17:54.286Z,101811.00
2022-10-30T01:20:42.484Z,101804.00
2022-10-30T01:23:14.952Z,101800.75
2022-10-30T01:25:53.284Z,101807.94
2022-10-30T01:28:40.931Z,101807.09
2022-10-30T01:31:27.372Z,101819.50
2022-10-30T01:34:06.058Z,101809.09
2022-10-30T01:36:39.262Z,101816.91
2022-10-30T01:39:18.896Z,101810.38
2022-10-30T01:41:45.493Z,101813.19
2022-10-30T01:44:18.558Z,101818.75
2022-10-30T01:47:03.868Z,101826.91
2022-10-30T01:49:48.405Z,101828.84
2022-10-30T01:52:19.208Z,101841.88
2022-10-30T01:54:55.724Z,101836.84
2022-10-30T01:57:28.684Z,101835.22
2022-10-30T02:00:14.215Z,101837.97
2022-10-30T02:02:41.943Z,101830.34
2022-10-30T02:05:11.823Z,101832.31
2022-10-30T02:07:38.319Z,101833.28
2022-10-30T02:10:05.481Z,101830.84
2022-10-30T02:12:31.988Z,101832.00
2022-10-30T02:15:00.816Z,101834.59
2022-10-30T02:17:28.490Z,101823.84
2022-10-30T02:19:54.977Z,101835.44
2022-10-30T02:22:21.585Z,101832.38
2022-10-30T02:24:48.020Z,101831.06
2022-10-30T02:27:14.389Z,101827.34
2022-10-30T02:29:40.869Z,101833.97
2022-10-30T02:32:07.472Z,101838.06
2022-10-30T02:34:33.889Z,101832.50
2022-10-30T02:37:00.320Z,101833.19
2022-10-30T02:39:42.023Z,101839.34
2022-10-30T02:42:10.347Z,101837.88
2022-10-30T02:44:37.067Z,101836.91
2022-10-30T02:47:03.831Z,101841.00
2022-10-30T02:49:30.222Z,101836.91
2022-10-30T02:51:56.667Z,101837.56
2022-10-30T02:54:23.124Z,101836.59
2022-10-30T02:56:55.739Z,101837.56
2022-10-30T02:59:23.592Z,101833.19
2022-10-30T03:01:50.111Z,101838.38
2022-10-30T03:04:20.537Z,101835.13
2022-10-30T03:06:47.101Z,101840.50
2022-10-30T03:09:13.769Z,101838.06
2022-10-30T03:11:40.374Z,101831.41
2022-10-30T03:14:12.266Z,101845.72
2022-10-30T03:16:38.682Z,101837.75
2022-10-30T03:19:05.530Z,101841.38
2022-10-30T03:21:31.937Z,101846.22
2022-10-30T03:23:58.629Z,101839.09
2022-10-30T03:26:25.253Z,101835.97
2022-10-30T03:28:51.751Z,101838.59
2022-10-30T03:31:19.498Z,101849.50
2022-10-30T03:33:46.664Z,101848.66
2022-10-30T03:36:14.774Z,101851.44
2022-10-30T03:38:41.706Z,101857.97
2022-10-30T03:41:08.564Z,101853.06
2022-10-30T03:43:34.999Z,101853.72
2022-10-30T03:46:01.729Z,101843.31
2022-10-30T03:48:29.606Z,101858.13
2022-10-30T03:50:57.544Z,101856.97
2022-10-30T03:53:26.159Z,101866.06
2022-10-30T03:55:56.523Z,101850.63
2022-10-30T03:58:22.889Z,101851.59
2022-10-30T04:00:49.239Z,101846.72
2022-10-30T04:03:15.577Z,101851.75
2022-10-30T04:05:42.803Z,101850.94
2022-10-30T04:08:13.525Z,101846.72
2022-10-30T04:10:44.368Z,101849.63
2022-10-30T04:13:12.832Z,101847.34
2022-10-30T04:15:39.280Z,101848.50
2022-10-30T04:18:06.417Z,101850.47
2022-10-30T04:20:33.119Z,101844.09
2022-10-30T04:23:03.157Z,101849.00
2022-10-30T04:25:30.325Z,101845.25
2022-10-30T04:27:57.043Z,101839.56
2022-10-30T04:30:25.497Z,101836.16
2022-10-30T04:32:54.502Z,101839.22
2022-10-30T04:35:23.626Z,101839.06
2022-10-30T04:37:58.485Z,101848.84
2022-10-30T04:40:27.081Z,101846.22
2022-10-30T04:42:53.870Z,101845.91
2022-10-30T04:45:20.459Z,101834.53
2022-10-30T04:47:47.203Z,101834.69
2022-10-30T04:50:14.803Z,101834.69
2022-10-30T04:52:41.601Z,101847.72
2022-10-30T04:55:09.173Z,101837.13
2022-10-30T04:57:36.860Z,101848.66
2022-10-30T05:00:08.110Z,101843.31
2022-10-30T05:02:36.992Z,101838.09
2022-10-30T05:05:04.456Z,101845.09
2022-10-30T05:07:31.288Z,101854.50
2022-10-30T05:09:58.081Z,101848.50
2022-10-30T05:12:24.444Z,101852.91
2022-10-30T05:14:50.840Z,101852.41
2022-10-30T05:17:17.314Z,101860.34
2022-10-30T05:19:43.731Z,101858.75
2022-10-30T05:22:10.476Z,101854.50
2022-10-30T05:24:36.927Z,101856.63
2022-10-30T05:27:03.628Z,101850.28
2022-10-30T05:29:30.201Z,101853.84
2022-10-30T05:31:56.767Z,101848.81
2022-10-30T05:34:23.548Z,101857.09
2022-10-30T05:36:49.998Z,101849.59
2022-10-30T05:39:16.437Z,101852.53
2022-10-30T05:41:42.926Z,101846.84
2022-10-30T05:44:09.529Z,101850.56
2022-10-30T05:46:35.978Z,101848.47
2022-10-30T05:49:02.437Z,101843.25
2022-10-30T05:51:28.899Z,101841.63
2022-10-30T05:53:55.366Z,101845.69
2022-10-30T05:56:21.791Z,101840.81
2022-10-30T05:58:51.332Z,101837.72
2022-10-30T06:01:18.222Z,101835.81
2022-10-30T06:03:44.969Z,101835.00
2022-10-30T06:06:11.539Z,101838.56
2022-10-30T06:08:37.959Z,101834.19
2022-10-30T06:11:04.302Z,101835.97
2022-10-30T06:13:30.685Z,101831.75
2022-10-30T06:15:57.163Z,101831.59
2022-10-30T06:18:23.633Z,101830.47
2022-10-30T06:20:50.039Z,101835.50
2022-10-30T06:23:16.454Z,101837.63
2022-10-30T06:25:42.851Z,101847.50
2022-10-30T06:28:11.247Z,101856.44
2022-10-30T06:30:38.098Z,101856.75
2022-10-30T06:33:05.254Z,101853.50
2022-10-30T06:35:31.896Z,101862.44
2022-10-30T06:38:00.178Z,101855.59
2022-10-30T06:40:27.689Z,101855.09
2022-10-30T06:42:54.273Z,101849.56
2022-10-30T06:45:22.103Z,101851.06
2022-10-30T06:47:48.780Z,101850.72
2022-10-30T06:50:17.908Z,101852.69
2022-10-30T06:52:44.885Z,101849.13
2022-10-30T06:55:11.845Z,101854.84
2022-10-30T06:57:38.727Z,101864.75
2022-10-30T07:00:06.861Z,101864.94
2022-10-30T07:02:33.775Z,101868.66
2022-10-30T07:05:00.130Z,101877.63
2022-10-30T07:07:26.473Z,101870.38
2022-10-30T07:09:52.833Z,101863.53
2022-10-30T07:12:19.346Z,101860.53
2022-10-30T07:14:45.708Z,101863.25
2022-10-30T07:17:12.074Z,101863.34
2022-10-30T07:19:38.493Z,101860.53
2022-10-30T07:22:04.871Z,101854.22
2022-10-30T07:24:31.260Z,101853.34
2022-10-30T07:26:57.594Z,101855.84
2022-10-30T07:29:23.950Z,101863.84
2022-10-30T07:32:02.292Z,101864.31
2022-10-30T07:34:29.313Z,101861.84
2022-10-30T07:36:55.639Z,101853.34
2022-10-30T07:39:22.007Z,101845.03
2022-10-30T07:41:50.409Z,101855.09
2022-10-30T07:44:16.899Z,101857.84
2022-10-30T07:46:43.256Z,101852.94
2022-10-30T07:49:09.608Z,101849.63
2022-10-30T07:51:35.943Z,101843.75
2022-10-30T07:54:02.274Z,101840.44
2022-10-30T07:56:28.639Z,101842.50
2022-10-30T07:58:55.095Z,101842.84
2022-10-30T08:01:21.540Z,101840.34
2022-10-30T08:03:47.997Z,101840.44
2022-10-30T08:06:14.351Z,101838.94
2022-10-30T08:08:43.391Z,101837.88
2022-10-30T08:11:10.092Z,101839.63
2022-10-30T08:13:36.456Z,101842.19
2022-10-30T08:16:02.831Z,101838.88
2022-10-30T08:18:29.266Z,101839.59
2022-10-30T08:20:55.620Z,101847.00
2022-10-30T08:23:23.148Z,101851.97
2022-10-30T08:25:49.487Z,101848.66
2022-10-30T08:28:15.870Z,101849.84
2022-10-30T08:30:42.217Z,101843.97
2022-10-30T08:33:15.553Z,101844.34
2022-10-30T08:35:53.146Z,101846.94
2022-10-30T08:38:19.870Z,101837.63
2022-10-30T08:40:46.217Z,101840.44
2022-10-30T08:43:12.934Z,101840.94
2022-10-30T08:45:39.657Z,101841.28
2022-10-30T08:48:07.311Z,101835.09
2022-10-30T08:50:35.244Z,101840.00
2022-10-30T08:53:06.503Z,101837.72
2022-10-30T08:55:33.390Z,101846.25
2022-10-30T08:58:00.334Z,101842.03
2022-10-30T09:00:27.124Z,101846.72
2022-10-30T09:02:53.477Z,101844.16
2022-10-30T09:05:20.473Z,101835.13
2022-10-30T09:07:47.100Z,101842.22
2022-10-30T09:10:14.582Z,101837.41
2022-10-30T09:12:41.004Z,101842.88
2022-10-30T09:15:08.052Z,101838.66
2022-10-30T09:17:34.399Z,101845.91
2022-10-30T09:20:00.779Z,101844.34
2022-10-30T09:22:27.105Z,101838.75
2022-10-30T09:24:53.540Z,101830.38
2022-10-30T09:27:19.949Z,101821.75
2022-10-30T09:29:46.313Z,101823.56
2022-10-30T09:32:12.670Z,101818.34
2022-10-30T09:34:39.582Z,101816.97
2022-10-30T09:37:05.955Z,101829.28
2022-10-30T09:39:32.384Z,101825.47
2022-10-30T09:42:16.965Z,101828.53
2022-10-30T09:45:15.153Z,101840.63
2022-10-30T09:47:50.508Z,101849.16
2022-10-30T09:50:25.873Z,101847.56
2022-10-30T09:53:45.259Z,101851.63
2022-10-30T09:56:31.642Z,101860.53
2022-10-30T09:59:30.114Z,101855.09
2022-10-30T10:02:21.800Z,101864.38
2022-10-30T10:04:52.483Z,101869.00
2022-10-30T10:07:32.172Z,101866.19
2022-10-30T10:10:04.234Z,101859.72
2022-10-30T10:12:40.570Z,101844.00
2022-10-30T10:15:25.003Z,101854.56
2022-10-30T10:17:51.665Z,101848.94
2022-10-30T10:20:30.306Z,101852.22
2022-10-30T10:22:59.946Z,101846.97
2022-10-30T10:25:30.363Z,101855.06
2022-10-30T10:28:20.670Z,101846.19
2022-10-30T10:30:53.116Z,101852.44
2022-10-30T10:33:31.674Z,101846.78
2022-10-30T10:36:08.216Z,101851.22
2022-10-30T10:38:54.388Z,101857.06
2022-10-30T10:41:42.008Z,101848.97
2022-10-30T10:44:17.406Z,101843.72
2022-10-30T10:46:43.689Z,101841.06
2022-10-30T10:49:39.019Z,101839.44
2022-10-30T10:52:30.057Z,101842.91
2022-10-30T10:55:02.403Z,101842.84
2022-10-30T10:57:33.582Z,101838.34
2022-10-30T11:00:13.613Z,101841.16
2022-10-30T11:02:58.887Z,101843.09
2022-10-30T11:05:52.077Z,101845.28
2022-10-30T11:08:27.404Z,101845.66
2022-10-30T11:11:14.288Z,101843.41
2022-10-30T11:13:43.302Z,101834.41
2022-10-30T11:16:37.804Z,101834.34
2022-10-30T11:19:08.958Z,101829.63
2022-10-30T11:21:41.988Z,101828.94
2022-10-30T11:24:28.604Z,101819.75
2022-10-30T11:26:57.430Z,101810.59
2022-10-30T11:29:27.840Z,101814.66
2022-10-30T11:32:05.491Z,101806.91
2022-10-30T11:34:34.414Z,101803.38
2022-10-30T11:37:00.888Z,101800.47
2022-10-30T11:39:30.058Z,101797.63
2022-10-30T11:42:03.372Z,101792.88
2022-10-30T11:44:45.381Z,101809.25
2022-10-30T11:47:15.545Z,101791.25
2022-10-30T11:49:51.586Z,101802.84
2022-10-30T11:52:20.850Z,101809.41
2022-10-30T11:54:56.112Z,101800.31
2022-10-30T11:57:33.448Z,101802.66
2022-10-30T12:00:05.035Z,101797.78
2022-10-30T12:02:41.987Z,101793.31
2022-10-30T12:05:43.748Z,101794.09
2022-10-30T12:08:18.619Z,101790.22
2022-10-30T12:10:59.913Z,101777.28
2022-10-30T12:13:28.089Z,101775.22
2022-10-30T12:16:07.584Z,101777.41
2022-10-30T12:18:34.805Z,101781.31
2022-10-30T12:21:02.602Z,101778.91
2022-10-30T12:23:29.594Z,101773.22
2022-10-30T12:25:58.953Z,101774.06
2022-10-30T12:28:29.085Z,101775.50
2022-10-30T12:31:04.416Z,101783.34
2022-10-30T12:33:45.909Z,101788.75
2022-10-30T12:36:18.617Z,101778.22
2022-10-30T12:38:56.391Z,101776.63
2022-10-30T12:41:40.186Z,101768.94
2022-10-30T12:44:26.119Z,101772.00
2022-10-30T12:47:02.175Z,101770.91
2022-10-30T12:49:46.529Z,101774.50
2022-10-30T12:52:21.658Z,101769.22
2022-10-30T12:55:15.964Z,101769.34
2022-10-30T12:58:14.249Z,101772.38
2022-10-30T13:01:05.074Z,101769.56
2022-10-30T13:03:39.151Z,101763.94
2022-10-30T13:06:22.362Z,101760.94
2022-10-30T13:09:26.291Z,101748.34
2022-10-30T13:12:03.993Z,101755.16
2022-10-30T13:14:38.629Z,101746.88
2022-10-30T13:17:10.710Z,101754.59
2022-10-30T13:19:37.993Z,101748.25
2022-10-30T13:22:12.400Z,101743.53
2022-10-30T13:25:16.743Z,101744.78
2022-10-30T13:27:58.478Z,101750.06
2022-10-30T13:30:30.439Z,101745.41
2022-10-30T13:33:09.002Z,101736.47
2022-10-30T13:35:50.592Z,101739.91
2022-10-30T13:38:36.670Z,101748.88
2022-10-30T13:41:39.917Z,101751.13
2022-10-30T13:44:24.524Z,101754.88
2022-10-30T13:47:07.995Z,101752.91
2022-10-30T13:49:41.971Z,101754.56
2022-10-30T13:52:17.332Z,101758.03
2022-10-30T13:55:05.333Z,101757.19
2022-10-30T13:57:39.766Z,101758.03
2022-10-30T14:00:12.997Z,101762.47
2022-10-30T14:02:54.845Z,101748.13
2022-10-30T14:05:58.481Z,101755.91
2022-10-30T14:08:35.852Z,101762.03
2022-10-30T14:11:05.581Z,101748.28
2022-10-30T14:14:04.464Z,101761.69
2022-10-30T14:16:45.321Z,101762.91
2022-10-30T14:19:16.710Z,101764.34
2022-10-30T14:21:59.063Z,101767.88
2022-10-30T14:24:35.252Z,101761.22
2022-10-30T14:27:04.608Z,101751.47
2022-10-30T14:29:41.110Z,101751.09
2022-10-30T14:32:13.591Z,101751.69
2022-10-30T14:34:44.017Z,101753.31
2022-10-30T14:37:12.296Z,101755.34
2022-10-30T14:39:41.329Z,101756.94
2022-10-30T14:42:13.703Z,101746.41
2022-10-30T14:44:52.326Z,101741.44
2022-10-30T14:47:50.772Z,101729.72
2022-10-30T14:50:26.483Z,101742.75
2022-10-30T14:52:56.128Z,101746.97
2022-10-30T14:55:29.198Z,101753.28
2022-10-30T14:58:01.985Z,101748.22
2022-10-30T15:00:42.162Z,101749.44
2022-10-30T15:03:31.704Z,101760.41
2022-10-30T15:06:04.842Z,101766.34
2022-10-30T15:08:59.290Z,101770.03
2022-10-30T15:11:35.354Z,101775.78
2022-10-30T15:14:40.421Z,101779.09
2022-10-30T15:17:33.570Z,101775.91
2022-10-30T15:20:02.966Z,101763.38
2022-10-30T15:22:30.330Z,101766.66
2022-10-30T15:24:56.905Z,101773.56
2022-10-30T15:27:25.487Z,101791.19
2022-10-30T15:30:02.281Z,101800.75
2022-10-30T15:32:28.659Z,101804.19
2022-10-30T15:35:03.611Z,101803.81
2022-10-30T15:37:30.660Z,101810.50
2022-10-30T15:40:18.452Z,101817.81
2022-10-30T15:42:47.278Z,101827.28
2022-10-30T15:45:25.565Z,101827.94
2022-10-30T15:48:26.378Z,101839.47
2022-10-30T15:51:17.603Z,101828.97
2022-10-30T15:53:51.354Z,101850.81
2022-10-30T15:56:44.442Z,101853.66
2022-10-30T15:59:26.652Z,101865.38
2022-10-30T16:01:55.413Z,101861.75
2022-10-30T16:04:23.374Z,101867.22
2022-10-30T16:06:55.867Z,101870.63
2022-10-30T16:09:24.068Z,101876.88
2022-10-30T16:11:52.665Z,101877.88
2022-10-30T16:14:24.522Z,101883.53
2022-10-30T16:16:51.930Z,101880.69
2022-10-30T16:19:29.144Z,101887.38
2022-10-30T16:21:57.082Z,101878.25
2022-10-30T16:24:32.434Z,101889.34
2022-10-30T16:27:28.184Z,101887.91
2022-10-30T16:29:59.882Z,101888.09
2022-10-30T16:32:29.601Z,101889.31
2022-10-30T16:35:01.404Z,101892.72
2022-10-30T16:37:40.663Z,101902.00
2022-10-30T16:40:14.156Z,101901.78
2022-10-30T16:42:40.676Z,101907.41
2022-10-30T16:45:13.223Z,101911.84
2022-10-30T16:47:44.716Z,101919.28
2022-10-30T16:50:15.447Z,101914.44
2022-10-30T16:52:43.346Z,101907.78
2022-10-30T16:55:19.927Z,101912.59
2022-10-30T16:57:53.059Z,101916.44
2022-10-30T17:00:27.334Z,101923.47
2022-10-30T17:02:56.450Z,101933.34
2022-10-30T17:05:24.956Z,101936.34
2022-10-30T17:07:56.068Z,101942.81
2022-10-30T17:10:44.027Z,101937.97
2022-10-30T17:13:32.853Z,101935.91
2022-10-30T17:16:24.703Z,101936.28
2022-10-30T17:18:53.673Z,101945.56
2022-10-30T17:21:24.711Z,101942.31
2022-10-30T17:23:59.958Z,101933.84
2022-10-30T17:26:28.753Z,101940.25
2022-10-30T17:28:55.175Z,101938.84
2022-10-30T17:31:39.895Z,101931.75
2022-10-30T17:34:27.532Z,101926.28
2022-10-30T17:36:56.474Z,101930.91
2022-10-30T17:39:22.804Z,101937.31
2022-10-30T17:41:49.315Z,101940.69
2022-10-30T17:44:22.850Z,101938.66
2022-10-30T17:46:51.003Z,101931.56
2022-10-30T17:49:31.645Z,101936.31
2022-10-30T17:51:58.481Z,101916.56
2022-10-30T17:54:25.525Z,101942.31
2022-10-30T17:56:52.636Z,101957.38
2022-10-30T17:59:19.081Z,101968.78
2022-10-30T18:01:45.586Z,101966.09
2022-10-30T18:04:19.753Z,101964.22
2022-10-30T18:06:47.382Z,101975.47
2022-10-30T18:09:13.945Z,101980.59
2022-10-30T18:11:40.415Z,101982.19
2022-10-30T18:14:07.003Z,101995.44
2022-10-30T18:16:33.363Z,101994.66
2022-10-30T18:18:59.761Z,101998.25
2022-10-30T18:21:27.477Z,102002.25
2022-10-30T18:23:54.978Z,102000.19
2022-10-30T18:26:24.426Z,102007.38
2022-10-30T18:28:51.281Z,102013.81
2022-10-30T18:31:20.810Z,102021.41
2022-10-30T18:33:47.596Z,102020.94
2022-10-30T18:36:18.980Z,102032.94
2022-10-30T18:38:45.952Z,102031.50
2022-10-30T18:41:29.605Z,102033.84
2022-10-30T18:43:55.988Z,102037.66
2022-10-30T18:46:23.573Z,102042.22
2022-10-30T18:48:49.923Z,102043.06
2022-10-30T18:51:22.681Z,102056.94
2022-10-30T18:53:52.488Z,102064.97
2022-10-30T18:56:30.151Z,102054.88
2022-10-30T18:59:01.651Z,102054.25
2022-10-30T19:01:30.296Z,102053.63
2022-10-30T19:03:56.781Z,102048.75
2022-10-30T19:06:24.254Z,102043.88
2022-10-30T19:08:50.841Z,102051.44
2022-10-30T19:11:23.960Z,102055.53
2022-10-30T19:13:52.114Z,102046.44
2022-10-30T19:16:19.588Z,102053.00
2022-10-30T19:18:47.360Z,102053.53
2022-10-30T19:21:21.911Z,102070.41
2022-10-30T19:23:49.091Z,102070.59
2022-10-30T19:26:16.923Z,102066.34
2022-10-30T19:28:44.373Z,102075.34
2022-10-30T19:31:15.131Z,102077.66
2022-10-30T19:33:41.855Z,102073.97
2022-10-30T19:36:28.544Z,102076.31
2022-10-30T19:38:55.851Z,102076.16
2022-10-30T19:41:24.444Z,102074.91
2022-10-30T19:43:50.897Z,102069.41
2022-10-30T19:46:17.258Z,102070.72
2022-10-30T19:49:00.117Z,102080.72
2022-10-30T19:51:28.065Z,102090.03
2022-10-30T19:53:54.519Z,102081.75
2022-10-30T19:56:21.334Z,102082.44
2022-10-30T19:58:47.896Z,102086.22
2022-10-30T20:01:14.638Z,102085.75
2022-10-30T20:03:41.112Z,102089.06
2022-10-30T20:06:07.678Z,102109.50
2022-10-30T20:08:34.097Z,102113.56
2022-10-30T20:11:01.908Z,102115.09
2022-10-30T20:13:29.394Z,102126.69
2022-10-30T20:15:58.771Z,102127.81
2022-10-30T20:18:31.397Z,102129.78
2022-10-30T20:21:00.214Z,102131.13
2022-10-30T20:23:27.576Z,102133.75
2022-10-30T20:26:04.093Z,102132.25
2022-10-30T20:28:39.684Z,102128.19
2022-10-30T20:31:07.532Z,102133.09
2022-10-30T20:33:34.891Z,102130.50
2022-10-30T20:36:01.301Z,102123.31
2022-10-30T20:38:31.154Z,102129.72
2022-10-30T20:41:01.862Z,102126.63
2022-10-30T20:43:37.117Z,102124.19
2022-10-30T20:46:05.953Z,102125.31
2022-10-30T20:48:33.051Z,102115.53
2022-10-30T20:51:00.628Z,102125.66
2022-10-30T20:53:28.278Z,102125.03
2022-10-30T20:55:54.746Z,102130.25
2022-10-30T20:58:21.421Z,102141.81
2022-10-30T21:00:47.853Z,102142.31
2022-10-30T21:03:14.675Z,102147.22
2022-10-30T21:05:44.270Z,102157.63
2022-10-30T21:08:12.900Z,102147.38
2022-10-30T21:10:39.917Z,102149.97
2022-10-30T21:13:09.027Z,102151.63
2022-10-30T21:15:41.356Z,102153.41
2022-10-30T21:18:08.229Z,102158.44
2022-10-30T21:20:34.704Z,102160.41
2022-10-30T21:23:01.040Z,102150.63
2022-10-30T21:25:27.434Z,102149.19
2022-10-30T21:27:56.448Z,102144.13
2022-10-30T21:30:22.807Z,102144.28
2022-10-30T21:32:49.205Z,102158.28
2022-10-30T21:35:16.217Z,102163.66
2022-10-30T21:37:42.658Z,102153.41
2022-10-30T21:40:09.570Z,102146.09
2022-10-30T21:42:35.902Z,102153.25
2022-10-30T21:45:02.298Z,102154.41
2022-10-30T21:47:28.639Z,102152.13
2022-10-30T21:49:55.072Z,102154.41
2022-10-30T21:52:21.449Z,102152.44
2022-10-30T21:54:47.792Z,102160.56
2022-10-30T21:57:14.154Z,102172.13
2022-10-30T21:59:40.510Z,102176.69
2022-10-30T22:02:07.113Z,102178.81
2022-10-30T22:04:33.512Z,102172.28
2022-10-30T22:06:59.838Z,102173.44
2022-10-30T22:09:26.306Z,102168.69
2022-10-30T22:11:52.678Z,102170.97
2022-10-30T22:14:19.104Z,102167.19
2022-10-30T22:16:45.479Z,102166.06
2022-10-30T22:19:11.825Z,102167.34
2022-10-30T22:21:38.274Z,102169.72
2022-10-30T22:24:04.914Z,102164.03
2022-10-30T22:26:31.883Z,102161.09
2022-10-30T22:29:00.209Z,102167.56
2022-10-30T22:31:28.742Z,102179.75
2022-10-30T22:33:55.447Z,102178.88
2022-10-30T22:36:32.514Z,102177.88
2022-10-30T22:39:01.035Z,102189.22
2022-10-30T22:41:31.401Z,102189.66
2022-10-30T22:44:02.793Z,102178.09
2022-10-30T22:46:30.844Z,102177.59
2022-10-30T22:48:58.159Z,102183.41
2022-10-30T22:51:25.415Z,102179.63
2022-10-30T22:54:01.428Z,102190.50
2022-10-30T22:56:30.456Z,102188.53
2022-10-30T22:58:57.538Z,102186.22
2022-10-30T23:01:26.398Z,102189.13
2022-10-30T23:03:55.585Z,102194.78
2022-10-30T23:06:22.882Z,102196.19
2022-10-30T23:08:52.130Z,102205.09
2022-10-30T23:11:18.962Z,102208.16
2022-10-30T23:13:45.376Z,102210.09
2022-10-30T23:16:18.184Z,102211.34
2022-10-30T23:18:45.339Z,102209.19
2022-10-30T23:21:17.869Z,102212.78
2022-10-30T23:23:44.867Z,102209.50
2022-10-30T23:26:20.399Z,102208.31
2022-10-30T23:28:47.885Z,102209.97
2022-10-30T23:31:38.549Z,102210.75
2022-10-30T23:34:10.913Z,102219.66
2022-10-30T23:36:37.793Z,102211.66
2022-10-30T23:39:07.813Z,102213.28
2022-10-30T23:41:34.860Z,102214.09
2022-10-30T23:44:04.960Z,102214.63
2022-10-30T23:46:32.577Z,102209.28
2022-10-30T23:48:59.069Z,102203.19
2022-10-30T23:51:25.953Z,102208.03
2022-10-30T23:53:52.304Z,102202.38
2022-10-30T23:56:18.893Z,102198.94
2022-10-30T23:58:46.629Z,102204.44
